Aérodrome :
LOGIN :

S'inscrire | Disclaimer

   EN    FR    IT 

 










Légende :    VFR   VFR Marginal   IFR   IFR Intensif   IFR Très Intensif
Visi : 
Plafond : 
>= 8 km
>= 3000ft
5 à 8 km
1000 à 3000 ft
1500m à 5 km
500 à 1000 ft
800 à 1500m
200 à 500 ft
< 800m
< 200 ft
Symboles :   Orages  Brouillard  Fortes neiges  Fortes précipitations  Vent > 20 kt
SIGMETs :   Divers  Orages  Givrage  Turbulence  Onde Orograph.  Cendres Volcan.







- Altitude de l'aérodrome : 233 ft
- Code IATA : REU


LERS - Reus Tarragona

DERNIER METAR :
  • 170600Z 04005KT 9999 FEW010 17/13 Q1017

METARs EXPIRÉS :
  • 170530Z 03005KT 9999 FEW010 16/13 Q1017
  • 170500Z 03003KT 9999 FEW010 14/14 Q1017
  • 170430Z AUTO 00000KT 9999 BKN009 15/14 Q1017
  • 170400Z AUTO 31004KT 9999 OVC009 16/13 Q1017
  • 170330Z AUTO 32003KT 9999 NCD 14/12 Q1017

TAF TAF LERS
Valide du 17 à 03h jusqu'au 18 à 03h UTC


170200Z 1703/1803 VRB03KT 9999 FEW030 TX26/1712Z TN15/1705Z
BECMG 1707/1709 19007KT
Pas de NOTAMs connus pour ce terrain.
1 SIGMET publié pour la FIR Barcelona (LECB) :
 
Turbulence forte
LECB SIGMET 1 VALID 170600/171000 LEVA
LECB BARCELONA UIR SEV TURB OBS AT 0529Z WI N4128 W00022 - N3812 E00254 - N3738 E00117 - N3855 W00113 - N4128 W00022 FL280/350 MOV NE NC=



MET'MAP, la Météo Aéronautique d'un coup d'oeil ! - Copyright ORBIFLY Décembre 2007 - Disclaimer

ORBIFLY MET'MAP TEAM :

Programmation & Développement : Alexandra Zaïnal
Conception & Développement : Baudouin d'Aumeries
Co-Programmation & Développement : Marc-Olivier Méhu
Soutien technique & logistique : Manuel Goepfert

Contact : metmap@orbifly.com




SOURCES & CREDITS :

   NOAA